sensor_id;sensor_type;location;lat;lon;timestamp;pressure;altitude;pressure_sealevel;temperature;humidity
8890;BME280;4481;43.406;24.454;2023-03-22T00:01:17;76898.47;;;-144.09;100.00
8890;BME280;4481;43.406;24.454;2023-03-22T00:03:44;76888.00;;;-144.09;100.00
8890;BME280;4481;43.406;24.454;2023-03-22T00:06:11;76906.81;;;-144.09;100.00
8890;BME280;4481;43.406;24.454;2023-03-22T00:08:38;76917.28;;;-144.09;100.00
8890;BME280;4481;43.406;24.454;2023-03-22T00:11:05;76931.91;;;-144.09;100.00
8890;BME280;4481;43.406;24.454;2023-03-22T00:13:32;76944.44;;;-144.09;100.00
8890;BME280;4481;43.406;24.454;2023-03-22T00:15:58;76931.91;;;-144.09;100.00
8890;BME280;4481;43.406;24.454;2023-03-22T00:18:27;76944.44;;;-144.09;100.00
8890;BME280;4481;43.406;24.454;2023-03-22T00:20:55;76946.53;;;-144.09;100.00
8890;BME280;4481;43.406;24.454;2023-03-22T00:23:23;76925.63;;;-144.09;100.00
8890;BME280;4481;43.406;24.454;2023-03-22T00:25:50;76931.91;;;-144.09;100.00
8890;BME280;4481;43.406;24.454;2023-03-22T00:28:17;76929.81;;;-144.09;100.00
8890;BME280;4481;43.406;24.454;2023-03-22T00:30:50;76908.91;;;-144.09;100.00
8890;BME280;4481;43.406;24.454;2023-03-22T00:33:17;76900.56;;;-144.09;100.00
8890;BME280;4481;43.406;24.454;2023-03-22T00:35:47;76902.63;;;-144.09;100.00
8890;BME280;4481;43.406;24.454;2023-03-22T00:38:13;76915.19;;;-144.09;100.00
8890;BME280;4481;43.406;24.454;2023-03-22T00:40:40;76938.16;;;-144.09;100.00
8890;BME280;4481;43.406;24.454;2023-03-22T00:43:06;76927.72;;;-144.09;100.00
8890;BME280;4481;43.406;24.454;2023-03-22T00:45:32;76894.28;;;-144.09;100.00
8890;BME280;4481;43.406;24.454;2023-03-22T00:48:00;76902.63;;;-144.09;100.00
8890;BME280;4481;43.406;24.454;2023-03-22T00:50:27;76888.00;;;-144.09;100.00
8890;BME280;4481;43.406;24.454;2023-03-22T00:52:53;76883.84;;;-144.09;100.00
8890;BME280;4481;43.406;24.454;2023-03-22T00:55:19;76888.00;;;-144.09;100.00
8890;BME280;4481;43.406;24.454;2023-03-22T00:57:46;76879.66;;;-144.09;100.00
8890;BME280;4481;43.406;24.454;2023-03-22T01:00:12;76885.91;;;-144.09;100.00
8890;BME280;4481;43.406;24.454;2023-03-22T01:02:40;76904.72;;;-144.09;100.00
8890;BME280;4481;43.406;24.454;2023-03-22T01:05:08;76892.19;;;-144.09;100.00
8890;BME280;4481;43.406;24.454;2023-03-22T01:07:40;76911.00;;;-144.09;100.00
8890;BME280;4481;43.406;24.454;2023-03-22T01:10:07;76915.19;;;-144.09;100.00
8890;BME280;4481;43.406;24.454;2023-03-22T01:12:34;76925.63;;;-144.09;100.00
8890;BME280;4481;43.406;24.454;2023-03-22T01:15:01;76902.63;;;-144.09;100.00
8890;BME280;4481;43.406;24.454;2023-03-22T01:17:28;76919.34;;;-144.09;100.00
8890;BME280;4481;43.406;24.454;2023-03-22T01:19:54;76902.63;;;-144.09;100.00
8890;BME280;4481;43.406;24.454;2023-03-22T01:22:20;76894.28;;;-144.09;100.00
8890;BME280;4481;43.406;24.454;2023-03-22T01:24:47;76898.47;;;-144.09;100.00
8890;BME280;4481;43.406;24.454;2023-03-22T01:27:13;76885.91;;;-144.09;100.00
8890;BME280;4481;43.406;24.454;2023-03-22T01:29:39;76873.38;;;-144.09;100.00
8890;BME280;4481;43.406;24.454;2023-03-22T01:32:06;76862.94;;;-144.09;100.00
8890;BME280;4481;43.406;24.454;2023-03-22T01:34:32;76865.03;;;-144.09;100.00
8890;BME280;4481;43.406;24.454;2023-03-22T01:36:59;76860.84;;;-144.09;100.00
8890;BME280;4481;43.406;24.454;2023-03-22T01:39:25;76865.03;;;-144.09;100.00
8890;BME280;4481;43.406;24.454;2023-03-22T01:41:52;76873.38;;;-144.09;100.00
8890;BME280;4481;43.406;24.454;2023-03-22T01:44:20;76906.81;;;-144.09;100.00
8890;BME280;4481;43.406;24.454;2023-03-22T01:46:47;76929.81;;;-144.09;100.00
8890;BME280;4481;43.406;24.454;2023-03-22T01:49:17;76923.53;;;-144.09;100.00
8890;BME280;4481;43.406;24.454;2023-03-22T01:51:46;76927.72;;;-144.09;100.00
8890;BME280;4481;43.406;24.454;2023-03-22T01:54:17;76936.06;;;-144.09;100.00
8890;BME280;4481;43.406;24.454;2023-03-22T01:56:46;76946.53;;;-144.09;100.00
8890;BME280;4481;43.406;24.454;2023-03-22T01:59:13;76929.81;;;-144.09;100.00
8890;BME280;4481;43.406;24.454;2023-03-22T02:01:40;76931.91;;;-144.09;100.00
8890;BME280;4481;43.406;24.454;2023-03-22T02:04:09;76921.44;;;-144.09;100.00
8890;BME280;4481;43.406;24.454;2023-03-22T02:06:38;76927.72;;;-144.09;100.00
8890;BME280;4481;43.406;24.454;2023-03-22T02:09:04;76925.63;;;-144.09;100.00
8890;BME280;4481;43.406;24.454;2023-03-22T02:11:34;76923.53;;;-144.09;100.00
8890;BME280;4481;43.406;24.454;2023-03-22T02:17:07;76892.19;;;-144.09;100.00
8890;BME280;4481;43.406;24.454;2023-03-22T02:28:39;76883.84;;;-144.09;100.00
8890;BME280;4481;43.406;24.454;2023-03-22T02:31:27;76900.56;;;-144.09;100.00
8890;BME280;4481;43.406;24.454;2023-03-22T02:40:13;76954.88;;;-144.09;100.00
8890;BME280;4481;43.406;24.454;2023-03-22T02:42:49;76950.69;;;-144.09;100.00
8890;BME280;4481;43.406;24.454;2023-03-22T02:45:24;76956.97;;;-144.09;100.00
8890;BME280;4481;43.406;24.454;2023-03-22T02:47:56;76982.06;;;-144.09;100.00
8890;BME280;4481;43.406;24.454;2023-03-22T02:50:28;76986.22;;;-144.09;100.00
8890;BME280;4481;43.406;24.454;2023-03-22T02:53:00;76954.88;;;-144.09;100.00
8890;BME280;4481;43.406;24.454;2023-03-22T02:55:31;76982.06;;;-144.09;100.00
8890;BME280;4481;43.406;24.454;2023-03-22T02:58:03;76998.78;;;-144.09;100.00
8890;BME280;4481;43.406;24.454;2023-03-22T03:00:32;76973.69;;;-144.09;100.00
8890;BME280;4481;43.406;24.454;2023-03-22T03:03:05;76952.78;;;-144.09;100.00
8890;BME280;4481;43.406;24.454;2023-03-22T03:05:37;76961.16;;;-144.09;100.00
8890;BME280;4481;43.406;24.454;2023-03-22T03:08:05;76969.50;;;-144.09;100.00
8890;BME280;4481;43.406;24.454;2023-03-22T03:10:34;76963.25;;;-144.09;100.00
8890;BME280;4481;43.406;24.454;2023-03-22T03:13:00;76940.25;;;-144.09;100.00
8890;BME280;4481;43.406;24.454;2023-03-22T03:15:26;76948.63;;;-144.09;100.00
8890;BME280;4481;43.406;24.454;2023-03-22T03:18:03;76940.25;;;-144.09;100.00
8890;BME280;4481;43.406;24.454;2023-03-22T03:20:40;76948.63;;;-144.09;100.00
8890;BME280;4481;43.406;24.454;2023-03-22T03:23:15;76952.78;;;-144.09;100.00
8890;BME280;4481;43.406;24.454;2023-03-22T03:25:50;76948.63;;;-144.09;100.00
8890;BME280;4481;43.406;24.454;2023-03-22T03:28:24;76946.53;;;-144.09;100.00
8890;BME280;4481;43.406;24.454;2023-03-22T03:30:58;76956.97;;;-144.09;100.00
8890;BME280;4481;43.406;24.454;2023-03-22T03:33:26;76965.34;;;-144.09;100.00
8890;BME280;4481;43.406;24.454;2023-03-22T03:35:56;76961.16;;;-144.09;100.00
8890;BME280;4481;43.406;24.454;2023-03-22T03:38:26;76950.69;;;-144.09;100.00
8890;BME280;4481;43.406;24.454;2023-03-22T03:40:56;76929.81;;;-144.09;100.00
8890;BME280;4481;43.406;24.454;2023-03-22T03:43:24;76946.53;;;-144.09;100.00
8890;BME280;4481;43.406;24.454;2023-03-22T03:45:50;76919.34;;;-144.09;100.00
8890;BME280;4481;43.406;24.454;2023-03-22T03:48:21;76904.72;;;-144.09;100.00
8890;BME280;4481;43.406;24.454;2023-03-22T03:50:49;76915.19;;;-144.09;100.00
8890;BME280;4481;43.406;24.454;2023-03-22T03:53:16;76938.16;;;-144.09;100.00
8890;BME280;4481;43.406;24.454;2023-03-22T03:55:43;76925.63;;;-144.09;100.00
8890;BME280;4481;43.406;24.454;2023-03-22T03:58:09;76929.81;;;-144.09;100.00
8890;BME280;4481;43.406;24.454;2023-03-22T04:00:36;76944.44;;;-144.09;100.00
8890;BME280;4481;43.406;24.454;2023-03-22T04:03:03;76959.06;;;-144.09;100.00
8890;BME280;4481;43.406;24.454;2023-03-22T04:05:30;76927.72;;;-144.09;100.00
8890;BME280;4481;43.406;24.454;2023-03-22T04:07:56;76921.44;;;-144.09;100.00
8890;BME280;4481;43.406;24.454;2023-03-22T04:10:22;76961.16;;;-144.09;100.00
8890;BME280;4481;43.406;24.454;2023-03-22T04:12:48;76982.06;;;-144.09;100.00
8890;BME280;4481;43.406;24.454;2023-03-22T04:15:15;76975.78;;;-144.09;100.00
8890;BME280;4481;43.406;24.454;2023-03-22T04:17:42;76967.41;;;-144.09;100.00
8890;BME280;4481;43.406;24.454;2023-03-22T04:20:10;76959.06;;;-144.09;100.00
8890;BME280;4481;43.406;24.454;2023-03-22T04:22:38;76944.44;;;-144.09;100.00
8890;BME280;4481;43.406;24.454;2023-03-22T04:25:05;76931.91;;;-144.09;100.00
8890;BME280;4481;43.406;24.454;2023-03-22T04:27:36;76954.88;;;-144.09;100.00
8890;BME280;4481;43.406;24.454;2023-03-22T04:30:04;76940.25;;;-144.09;100.00
8890;BME280;4481;43.406;24.454;2023-03-22T04:32:31;76973.69;;;-144.09;100.00
8890;BME280;4481;43.406;24.454;2023-03-22T04:34:57;76986.22;;;-144.09;100.00
8890;BME280;4481;43.406;24.454;2023-03-22T04:37:23;77002.94;;;-144.09;100.00
8890;BME280;4481;43.406;24.454;2023-03-22T04:39:51;76990.41;;;-144.09;100.00
8890;BME280;4481;43.406;24.454;2023-03-22T04:42:17;76973.69;;;-144.09;100.00
8890;BME280;4481;43.406;24.454;2023-03-22T04:44:43;76986.22;;;-144.09;100.00
8890;BME280;4481;43.406;24.454;2023-03-22T04:47:10;76986.22;;;-144.09;100.00
8890;BME280;4481;43.406;24.454;2023-03-22T04:49:37;76982.06;;;-144.09;100.00
8890;BME280;4481;43.406;24.454;2023-03-22T04:52:03;76990.41;;;-144.09;100.00
8890;BME280;4481;43.406;24.454;2023-03-22T04:54:29;76969.50;;;-144.09;100.00
8890;BME280;4481;43.406;24.454;2023-03-22T04:56:55;76961.16;;;-144.09;100.00
8890;BME280;4481;43.406;24.454;2023-03-22T04:59:21;76952.78;;;-144.09;100.00
8890;BME280;4481;43.406;24.454;2023-03-22T05:01:48;76948.63;;;-144.09;100.00
8890;BME280;4481;43.406;24.454;2023-03-22T05:04:16;76944.44;;;-144.09;100.00
8890;BME280;4481;43.406;24.454;2023-03-22T05:06:43;76973.69;;;-144.09;100.00
8890;BME280;4481;43.406;24.454;2023-03-22T05:09:10;76965.34;;;-144.09;100.00
8890;BME280;4481;43.406;24.454;2023-03-22T05:11:36;76959.06;;;-144.09;100.00
8890;BME280;4481;43.406;24.454;2023-03-22T05:14:03;76956.97;;;-144.09;100.00
8890;BME280;4481;43.406;24.454;2023-03-22T05:16:29;76967.41;;;-144.09;100.00
8890;BME280;4481;43.406;24.454;2023-03-22T05:18:55;76942.34;;;-144.09;100.00
8890;BME280;4481;43.406;24.454;2023-03-22T05:21:23;76936.06;;;-144.09;100.00
8890;BME280;4481;43.406;24.454;2023-03-22T05:23:54;76948.63;;;-144.09;100.00
8890;BME280;4481;43.406;24.454;2023-03-22T05:26:20;76946.53;;;-144.09;100.00
8890;BME280;4481;43.406;24.454;2023-03-22T05:28:49;76963.25;;;-144.09;100.00
8890;BME280;4481;43.406;24.454;2023-03-22T05:31:15;76998.78;;;-144.09;100.00
8890;BME280;4481;43.406;24.454;2023-03-22T05:33:42;76973.69;;;-144.09;100.00
8890;BME280;4481;43.406;24.454;2023-03-22T05:36:09;76973.69;;;-144.09;100.00
8890;BME280;4481;43.406;24.454;2023-03-22T05:38:36;76988.31;;;-144.09;100.00
8890;BME280;4481;43.406;24.454;2023-03-22T05:41:03;76986.22;;;-144.09;100.00
8890;BME280;4481;43.406;24.454;2023-03-22T05:43:29;76994.59;;;-144.09;100.00
8890;BME280;4481;43.406;24.454;2023-03-22T05:45:57;76973.69;;;-144.09;100.00
8890;BME280;4481;43.406;24.454;2023-03-22T05:48:23;76952.78;;;-144.09;100.00
8890;BME280;4481;43.406;24.454;2023-03-22T05:50:49;76956.97;;;-144.09;100.00
8890;BME280;4481;43.406;24.454;2023-03-22T05:53:15;76936.06;;;-144.09;100.00
8890;BME280;4481;43.406;24.454;2023-03-22T05:55:41;76944.44;;;-144.09;100.00
8890;BME280;4481;43.406;24.454;2023-03-22T05:58:09;76934.00;;;-144.09;100.00
8890;BME280;4481;43.406;24.454;2023-03-22T06:00:36;76925.63;;;-144.09;100.00
8890;BME280;4481;43.406;24.454;2023-03-22T06:03:02;76942.34;;;-144.09;100.00
8890;BME280;4481;43.406;24.454;2023-03-22T06:05:30;76938.16;;;-144.09;100.00
8890;BME280;4481;43.406;24.454;2023-03-22T06:07:56;76931.91;;;-144.09;100.00
8890;BME280;4481;43.406;24.454;2023-03-22T06:10:23;76921.44;;;-144.09;100.00
8890;BME280;4481;43.406;24.454;2023-03-22T06:12:51;76936.06;;;-144.09;100.00
8890;BME280;4481;43.406;24.454;2023-03-22T06:15:18;76948.63;;;-144.09;100.00
8890;BME280;4481;43.406;24.454;2023-03-22T06:17:44;76940.25;;;-144.09;100.00
8890;BME280;4481;43.406;24.454;2023-03-22T06:20:11;76927.72;;;-144.09;100.00
8890;BME280;4481;43.406;24.454;2023-03-22T06:22:39;76921.44;;;-144.09;100.00
8890;BME280;4481;43.406;24.454;2023-03-22T06:25:07;76908.91;;;-144.09;100.00
8890;BME280;4481;43.406;24.454;2023-03-22T06:27:33;76908.91;;;-144.09;100.00
8890;BME280;4481;43.406;24.454;2023-03-22T06:30:00;76921.44;;;-144.09;100.00
8890;BME280;4481;43.406;24.454;2023-03-22T06:32:27;76913.09;;;-144.09;100.00
8890;BME280;4481;43.406;24.454;2023-03-22T06:34:53;76929.81;;;-144.09;100.00
8890;BME280;4481;43.406;24.454;2023-03-22T06:37:21;76948.63;;;-144.09;100.00
8890;BME280;4481;43.406;24.454;2023-03-22T06:39:48;76942.34;;;-144.09;100.00
8890;BME280;4481;43.406;24.454;2023-03-22T06:42:15;76936.06;;;-144.09;100.00
8890;BME280;4481;43.406;24.454;2023-03-22T06:44:41;76929.81;;;-144.09;100.00
8890;BME280;4481;43.406;24.454;2023-03-22T06:47:09;76923.53;;;-144.09;100.00
8890;BME280;4481;43.406;24.454;2023-03-22T06:49:36;76917.28;;;-144.09;100.00
8890;BME280;4481;43.406;24.454;2023-03-22T06:52:03;76925.63;;;-144.09;100.00
8890;BME280;4481;43.406;24.454;2023-03-22T06:54:29;76919.34;;;-144.09;100.00
8890;BME280;4481;43.406;24.454;2023-03-22T06:56:55;76921.44;;;-144.09;100.00
8890;BME280;4481;43.406;24.454;2023-03-22T06:59:21;76944.44;;;-144.09;100.00
8890;BME280;4481;43.406;24.454;2023-03-22T07:01:47;76948.63;;;-144.09;100.00
8890;BME280;4481;43.406;24.454;2023-03-22T07:04:14;76934.00;;;-144.09;100.00
8890;BME280;4481;43.406;24.454;2023-03-22T07:06:40;76936.06;;;-144.09;100.00
8890;BME280;4481;43.406;24.454;2023-03-22T07:09:07;76927.72;;;-144.09;100.00
8890;BME280;4481;43.406;24.454;2023-03-22T07:11:35;76925.63;;;-144.09;100.00
8890;BME280;4481;43.406;24.454;2023-03-22T07:14:01;76913.09;;;-144.09;100.00
8890;BME280;4481;43.406;24.454;2023-03-22T07:16:27;76948.63;;;-144.09;100.00
8890;BME280;4481;43.406;24.454;2023-03-22T07:18:53;76938.16;;;-144.09;100.00
8890;BME280;4481;43.406;24.454;2023-03-22T07:21:20;76938.16;;;-144.09;100.00
8890;BME280;4481;43.406;24.454;2023-03-22T07:23:47;76998.78;;;-144.09;100.00
8890;BME280;4481;43.406;24.454;2023-03-22T07:26:13;76967.41;;;-144.09;100.00
8890;BME280;4481;43.406;24.454;2023-03-22T07:28:40;76944.44;;;-144.09;100.00
8890;BME280;4481;43.406;24.454;2023-03-22T07:31:09;76940.25;;;-144.09;100.00
8890;BME280;4481;43.406;24.454;2023-03-22T07:33:36;76944.44;;;-144.09;100.00
8890;BME280;4481;43.406;24.454;2023-03-22T07:36:03;76973.69;;;-144.09;100.00
8890;BME280;4481;43.406;24.454;2023-03-22T07:38:31;77009.22;;;-144.09;100.00
8890;BME280;4481;43.406;24.454;2023-03-22T07:40:58;76990.41;;;-144.09;100.00
8890;BME280;4481;43.406;24.454;2023-03-22T07:43:24;76984.16;;;-144.09;100.00
8890;BME280;4481;43.406;24.454;2023-03-22T07:45:52;76986.22;;;-144.09;100.00
8890;BME280;4481;43.406;24.454;2023-03-22T07:48:19;77000.88;;;-144.09;100.00
8890;BME280;4481;43.406;24.454;2023-03-22T07:50:46;76979.97;;;-144.09;100.00
8890;BME280;4481;43.406;24.454;2023-03-22T07:53:13;77002.94;;;-144.09;100.00
8890;BME280;4481;43.406;24.454;2023-03-22T07:55:39;77000.88;;;-144.09;100.00
8890;BME280;4481;43.406;24.454;2023-03-22T07:58:07;76986.22;;;-144.09;100.00
8890;BME280;4481;43.406;24.454;2023-03-22T08:00:34;76975.78;;;-144.09;100.00
8890;BME280;4481;43.406;24.454;2023-03-22T08:03:00;76996.69;;;-144.09;100.00
8890;BME280;4481;43.406;24.454;2023-03-22T08:05:26;76982.06;;;-144.09;100.00
8890;BME280;4481;43.406;24.454;2023-03-22T08:07:53;76975.78;;;-144.09;100.00
8890;BME280;4481;43.406;24.454;2023-03-22T08:10:21;76969.50;;;-144.09;100.00
8890;BME280;4481;43.406;24.454;2023-03-22T08:12:47;76973.69;;;-144.09;100.00
8890;BME280;4481;43.406;24.454;2023-03-22T08:15:14;76959.06;;;-144.09;100.00
8890;BME280;4481;43.406;24.454;2023-03-22T08:17:41;76965.34;;;-144.09;100.00
8890;BME280;4481;43.406;24.454;2023-03-22T08:20:08;76963.25;;;-144.09;100.00
8890;BME280;4481;43.406;24.454;2023-03-22T08:22:34;76977.88;;;-144.09;100.00
8890;BME280;4481;43.406;24.454;2023-03-22T08:25:01;76977.88;;;-144.09;100.00
8890;BME280;4481;43.406;24.454;2023-03-22T08:27:27;76946.53;;;-144.09;100.00
8890;BME280;4481;43.406;24.454;2023-03-22T08:29:54;76946.53;;;-144.09;100.00
8890;BME280;4481;43.406;24.454;2023-03-22T08:32:21;76940.25;;;-144.09;100.00
8890;BME280;4481;43.406;24.454;2023-03-22T08:34:47;76931.91;;;-144.09;100.00
8890;BME280;4481;43.406;24.454;2023-03-22T08:37:13;76940.25;;;-144.09;100.00
8890;BME280;4481;43.406;24.454;2023-03-22T08:39:42;76931.91;;;-144.09;100.00
8890;BME280;4481;43.406;24.454;2023-03-22T08:42:09;76927.72;;;-144.09;100.00
8890;BME280;4481;43.406;24.454;2023-03-22T08:44:35;76911.00;;;-144.09;100.00
8890;BME280;4481;43.406;24.454;2023-03-22T08:47:02;76936.06;;;-144.09;100.00
8890;BME280;4481;43.406;24.454;2023-03-22T08:49:29;76913.09;;;-144.09;100.00
8890;BME280;4481;43.406;24.454;2023-03-22T08:51:56;76919.34;;;-144.09;100.00
8890;BME280;4481;43.406;24.454;2023-03-22T08:54:22;76936.06;;;-144.09;100.00
8890;BME280;4481;43.406;24.454;2023-03-22T08:56:49;76917.28;;;-144.09;100.00
8890;BME280;4481;43.406;24.454;2023-03-22T08:59:17;76946.53;;;-144.09;100.00
8890;BME280;4481;43.406;24.454;2023-03-22T09:01:43;76925.63;;;-144.09;100.00
8890;BME280;4481;43.406;24.454;2023-03-22T09:04:10;76942.34;;;-144.09;100.00
8890;BME280;4481;43.406;24.454;2023-03-22T09:06:37;76934.00;;;-144.09;100.00
8890;BME280;4481;43.406;24.454;2023-03-22T09:09:11;76938.16;;;-144.09;100.00
8890;BME280;4481;43.406;24.454;2023-03-22T09:11:37;76936.06;;;-144.09;100.00
8890;BME280;4481;43.406;24.454;2023-03-22T09:14:07;76923.53;;;-144.09;100.00
8890;BME280;4481;43.406;24.454;2023-03-22T09:16:33;76915.19;;;-144.09;100.00
8890;BME280;4481;43.406;24.454;2023-03-22T09:19:00;76911.00;;;-144.09;100.00
8890;BME280;4481;43.406;24.454;2023-03-22T09:21:26;76906.81;;;-144.09;100.00
8890;BME280;4481;43.406;24.454;2023-03-22T09:23:55;76911.00;;;-144.09;100.00
8890;BME280;4481;43.406;24.454;2023-03-22T09:26:21;76906.81;;;-144.09;100.00
8890;BME280;4481;43.406;24.454;2023-03-22T09:28:48;76906.81;;;-144.09;100.00
8890;BME280;4481;43.406;24.454;2023-03-22T09:31:15;76906.81;;;-144.09;100.00
8890;BME280;4481;43.406;24.454;2023-03-22T09:33:42;76902.63;;;-144.09;100.00
8890;BME280;4481;43.406;24.454;2023-03-22T09:36:08;76902.63;;;-144.09;100.00
8890;BME280;4481;43.406;24.454;2023-03-22T09:38:36;76936.06;;;-144.09;100.00
8890;BME280;4481;43.406;24.454;2023-03-22T09:41:05;76919.34;;;-144.09;100.00
8890;BME280;4481;43.406;24.454;2023-03-22T09:43:34;76902.63;;;-144.09;100.00
8890;BME280;4481;43.406;24.454;2023-03-22T09:46:01;76911.00;;;-144.09;100.00
8890;BME280;4481;43.406;24.454;2023-03-22T09:48:30;76900.56;;;-144.09;100.00
8890;BME280;4481;43.406;24.454;2023-03-22T09:51:00;76888.00;;;-144.09;100.00
8890;BME280;4481;43.406;24.454;2023-03-22T09:53:27;76881.75;;;-144.09;100.00
8890;BME280;4481;43.406;24.454;2023-03-22T09:55:57;76919.34;;;-144.09;100.00
8890;BME280;4481;43.406;24.454;2023-03-22T09:58:30;76919.34;;;-144.09;100.00
8890;BME280;4481;43.406;24.454;2023-03-22T10:00:59;76927.72;;;-144.09;100.00
8890;BME280;4481;43.406;24.454;2023-03-22T10:06:20;76913.09;;;-144.09;100.00
8890;BME280;4481;43.406;24.454;2023-03-22T10:08:55;76894.28;;;-144.09;100.00
8890;BME280;4481;43.406;24.454;2023-03-22T10:11:29;76885.91;;;-144.09;100.00
8890;BME280;4481;43.406;24.454;2023-03-22T10:14:04;76906.81;;;-144.09;100.00
8890;BME280;4481;43.406;24.454;2023-03-22T10:16:34;76879.66;;;-144.09;100.00
8890;BME280;4481;43.406;24.454;2023-03-22T10:19:04;76869.19;;;-144.09;100.00
8890;BME280;4481;43.406;24.454;2023-03-22T10:21:33;76858.75;;;-144.09;100.00
8890;BME280;4481;43.406;24.454;2023-03-22T10:24:13;76894.28;;;-144.09;100.00
8890;BME280;4481;43.406;24.454;2023-03-22T10:26:44;76898.47;;;-144.09;100.00
8890;BME280;4481;43.406;24.454;2023-03-22T10:29:16;76881.75;;;-144.09;100.00
8890;BME280;4481;43.406;24.454;2023-03-22T10:31:46;76900.56;;;-144.09;100.00
8890;BME280;4481;43.406;24.454;2023-03-22T10:34:17;76879.66;;;-144.09;100.00
8890;BME280;4481;43.406;24.454;2023-03-22T10:36:45;76852.47;;;-144.09;100.00
8890;BME280;4481;43.406;24.454;2023-03-22T10:39:25;76848.31;;;-144.09;100.00
8890;BME280;4481;43.406;24.454;2023-03-22T10:41:54;76833.69;;;-144.09;100.00
8890;BME280;4481;43.406;24.454;2023-03-22T10:44:22;76819.06;;;-144.09;100.00
8890;BME280;4481;43.406;24.454;2023-03-22T10:46:52;76823.22;;;-144.09;100.00
8890;BME280;4481;43.406;24.454;2023-03-22T10:49:24;76833.69;;;-144.09;100.00
8890;BME280;4481;43.406;24.454;2023-03-22T10:51:55;76844.13;;;-144.09;100.00
8890;BME280;4481;43.406;24.454;2023-03-22T10:54:24;76808.59;;;-144.09;100.00
8890;BME280;4481;43.406;24.454;2023-03-22T10:56:50;76839.94;;;-144.09;100.00
8890;BME280;4481;43.406;24.454;2023-03-22T10:59:44;76860.84;;;-144.09;100.00
8890;BME280;4481;43.406;24.454;2023-03-22T11:02:19;76827.41;;;-144.09;100.00
8890;BME280;4481;43.406;24.454;2023-03-22T11:04:48;76835.78;;;-144.09;100.00
8890;BME280;4481;43.406;24.454;2023-03-22T11:07:26;76812.78;;;-144.09;100.00
8890;BME280;4481;43.406;24.454;2023-03-22T11:09:58;76819.06;;;-144.09;100.00
8890;BME280;4481;43.406;24.454;2023-03-22T11:12:24;76789.78;;;-144.09;100.00
8890;BME280;4481;43.406;24.454;2023-03-22T11:14:51;76793.97;;;-144.09;100.00
8890;BME280;4481;43.406;24.454;2023-03-22T11:17:21;76806.50;;;-144.09;100.00
8890;BME280;4481;43.406;24.454;2023-03-22T11:19:51;76785.63;;;-144.09;100.00
8890;BME280;4481;43.406;24.454;2023-03-22T11:22:23;76779.34;;;-144.09;100.00
8890;BME280;4481;43.406;24.454;2023-03-22T11:24:50;76785.63;;;-144.09;100.00
8890;BME280;4481;43.406;24.454;2023-03-22T11:27:18;76783.53;;;-144.09;100.00
8890;BME280;4481;43.406;24.454;2023-03-22T11:29:48;76808.59;;;-144.09;100.00
8890;BME280;4481;43.406;24.454;2023-03-22T11:32:25;76814.88;;;-144.09;100.00
8890;BME280;4481;43.406;24.454;2023-03-22T11:34:59;76860.84;;;-144.09;100.00
8890;BME280;4481;43.406;24.454;2023-03-22T11:37:26;76839.94;;;-144.09;100.00
8890;BME280;4481;43.406;24.454;2023-03-22T11:39:59;76829.50;;;-144.09;100.00
8890;BME280;4481;43.406;24.454;2023-03-22T11:42:26;76860.84;;;-144.09;100.00
8890;BME280;4481;43.406;24.454;2023-03-22T11:44:54;76848.31;;;-144.09;100.00
8890;BME280;4481;43.406;24.454;2023-03-22T11:47:24;76850.41;;;-144.09;100.00
8890;BME280;4481;43.406;24.454;2023-03-22T11:49:51;76898.47;;;-144.09;100.00
8890;BME280;4481;43.406;24.454;2023-03-22T11:52:21;76902.63;;;-144.09;100.00
8890;BME280;4481;43.406;24.454;2023-03-22T11:54:49;76908.91;;;-144.09;100.00
8890;BME280;4481;43.406;24.454;2023-03-22T11:57:19;76900.56;;;-144.09;100.00
8890;BME280;4481;43.406;24.454;2023-03-22T11:59:49;76904.72;;;-144.09;100.00
8890;BME280;4481;43.406;24.454;2023-03-22T12:02:22;76927.72;;;-144.09;100.00
8890;BME280;4481;43.406;24.454;2023-03-22T12:04:56;76942.34;;;-144.09;100.00
8890;BME280;4481;43.406;24.454;2023-03-22T12:07:27;76938.16;;;-144.09;100.00
8890;BME280;4481;43.406;24.454;2023-03-22T12:09:57;76973.69;;;-144.09;100.00
8890;BME280;4481;43.406;24.454;2023-03-22T12:12:26;76982.06;;;-144.09;100.00
8890;BME280;4481;43.406;24.454;2023-03-22T12:14:56;76986.22;;;-144.09;100.00
8890;BME280;4481;43.406;24.454;2023-03-22T12:17:30;77009.22;;;-144.09;100.00
8890;BME280;4481;43.406;24.454;2023-03-22T12:20:03;77023.84;;;-144.09;100.00
8890;BME280;4481;43.406;24.454;2023-03-22T12:22:34;77025.94;;;-144.09;100.00
8890;BME280;4481;43.406;24.454;2023-03-22T12:25:11;77023.84;;;-144.09;100.00
8890;BME280;4481;43.406;24.454;2023-03-22T12:27:39;77021.75;;;-144.09;100.00
8890;BME280;4481;43.406;24.454;2023-03-22T12:30:11;77021.75;;;-144.09;100.00
8890;BME280;4481;43.406;24.454;2023-03-22T12:32:42;77017.59;;;-144.09;100.00
8890;BME280;4481;43.406;24.454;2023-03-22T12:35:12;77000.88;;;-144.09;100.00
8890;BME280;4481;43.406;24.454;2023-03-22T12:37:42;76986.22;;;-144.09;100.00
8890;BME280;4481;43.406;24.454;2023-03-22T12:40:19;76988.31;;;-144.09;100.00
8890;BME280;4481;43.406;24.454;2023-03-22T12:42:50;76977.88;;;-144.09;100.00
8890;BME280;4481;43.406;24.454;2023-03-22T12:45:21;76969.50;;;-144.09;100.00
8890;BME280;4481;43.406;24.454;2023-03-22T12:47:52;76973.69;;;-144.09;100.00
8890;BME280;4481;43.406;24.454;2023-03-22T12:50:24;76952.78;;;-144.09;100.00
8890;BME280;4481;43.406;24.454;2023-03-22T12:52:54;76956.97;;;-144.09;100.00
8890;BME280;4481;43.406;24.454;2023-03-22T12:55:23;76950.69;;;-144.09;100.00
8890;BME280;4481;43.406;24.454;2023-03-22T12:57:50;76929.81;;;-144.09;100.00
8890;BME280;4481;43.406;24.454;2023-03-22T13:00:20;76921.44;;;-144.09;100.00
8890;BME280;4481;43.406;24.454;2023-03-22T13:02:50;76919.34;;;-144.09;100.00
8890;BME280;4481;43.406;24.454;2023-03-22T13:05:20;76950.69;;;-144.09;100.00
8890;BME280;4481;43.406;24.454;2023-03-22T13:07:52;76923.53;;;-144.09;100.00